Airfield :
LOGIN :

Register | Disclaimer

   EN    FR    IT 

 










Legend :    VFR   Marginal VFR   IFR   Intensive IFR   Very Intensive IFR
Visi :
Ceiling :
>= 8 km
>= 3000ft
5 to 8 km
1000 to 3000 ft
1500m to 5 km
500 to 1000 ft
800 to 1500m
200 to 500 ft
< 800m
< 200 ft
Symbols :   Thunderstorms  Fog  Heavy snow  Heavy precipitations  Wind > 20 kt
SIGMETs :     Misc.  Thunderstorms  Icing  Turbulence  Mountain Waves  Volcanic Ashes






- Airport Elevation : 659 ft
- IATA code : LYN


LFLY - Lyon Bron

CURRENT METAR :
  • 252030Z AUTO 34005KT 9999 BKN029 BKN037 OVC094 14/12 Q1015 NOSIG

EXPIRED METARs :
  • 252000Z AUTO 33006KT 9999 FEW030 OVC094 14/12 Q1015 TEMPO 4000 SHRA BKN030TCU
  • 251930Z AUTO 33005KT 9999 -RA NSC 14/12 Q1015 TEMPO 4000 SHRA BKN030TCU
  • 251900Z AUTO 33008KT CAVOK 14/12 Q1014 TEMPO 4000 SHRA BKN030TCU
  • 251830Z AUTO 31005KT 9999 FEW029 SCT094 14/12 Q1014 TEMPO 4000 SHRA BKN030TCU
  • 251800Z AUTO 31004KT 9999 ///TCU 14/11 Q1014 TEMPO 4000 SHRA

TAF TAF LFLY
Valid from the 25 at 18:00 until the 26 at 18:00 UTC


251700Z 2518/2618 VRB03KT 9999 BKN030
PROB30
TEMPO 2518/2521 4000 SHRA BKN030TCU
TEMPO 2603/2609 4000 BR BKN012
PROB40
TEMPO 2603/2608 0400 FG BKN003
BECMG 2609/2612 NSC
ATIS : +33 4 72 15 87 96



MET'MAP, your aeronautical weather chart ! - Copyright ORBIFLY December 2007 - Disclaimer

ORBIFLY MET'MAP TEAM :

Programming & Development : Alexandra Zaïnal
Original concept : Baudouin d'Aumeries
Technical & hardware support : Manuel Goepfert
Assistance : Marc-Olivier Méhu




SOURCES & CREDITS :

   NOAA